createdAt,value
2023-05-09T00:02:22.091Z,19.67
2023-05-09T00:07:27.214Z,19.84
2023-05-09T00:12:33.704Z,20.04
2023-05-09T00:17:39.785Z,20.22
2023-05-09T00:22:44.916Z,20.36
2023-05-09T00:27:49.889Z,20.52
2023-05-09T00:32:54.920Z,20.73
2023-05-09T00:38:00.636Z,20.87
2023-05-09T00:43:06.063Z,20.93
2023-05-09T00:48:11.791Z,21.03
2023-05-09T00:53:16.698Z,21.12
2023-05-09T00:58:22.174Z,21.24
2023-05-09T01:03:26.860Z,21.43
2023-05-09T01:08:55.630Z,21.64
2023-05-09T01:14:27.417Z,21.83
2023-05-09T01:19:31.979Z,21.95
2023-05-09T01:24:49.497Z,22.03
2023-05-09T01:29:59.684Z,22.06
2023-05-09T01:35:07.451Z,22.08
2023-05-09T01:40:22.085Z,22.12
2023-05-09T01:45:28.965Z,22.16
2023-05-09T01:50:36.624Z,22.26
2023-05-09T01:55:43.101Z,22.43
2023-05-09T02:00:52.412Z,22.68
2023-05-09T02:05:59.526Z,22.90
2023-05-09T02:11:04.558Z,23.03
2023-05-09T02:16:12.302Z,23.22
2023-05-09T02:21:17.608Z,23.34
2023-05-09T02:26:21.982Z,23.38
2023-05-09T02:31:27.319Z,23.48
2023-05-09T02:36:33.962Z,23.55
2023-05-09T02:41:38.833Z,23.70
2023-05-09T02:46:43.945Z,23.85
2023-05-09T02:51:49.083Z,23.95
2023-05-09T02:56:54.123Z,24.11
2023-05-09T03:01:59.270Z,24.23
2023-05-09T03:07:04.244Z,24.33
2023-05-09T03:12:10.924Z,24.43
2023-05-09T03:17:22.475Z,24.46
2023-05-09T03:22:27.282Z,24.55
2023-05-09T03:27:37.401Z,24.59
2023-05-09T03:32:45.622Z,24.66
2023-05-09T03:37:50.797Z,24.75
2023-05-09T03:42:56.029Z,24.82
2023-05-09T03:48:00.693Z,24.88
2023-05-09T03:53:06.662Z,24.94
2023-05-09T03:58:14.392Z,25.00
2023-05-09T04:03:21.071Z,25.04
2023-05-09T04:08:29.445Z,25.13
2023-05-09T04:13:36.116Z,25.18
2023-05-09T04:18:48.387Z,25.26
2023-05-09T04:23:53.886Z,25.31
2023-05-09T04:29:06.691Z,25.34
2023-05-09T04:34:14.336Z,25.41
2023-05-09T04:39:20.930Z,25.50
2023-05-09T04:44:37.464Z,25.56
2023-05-09T04:49:42.485Z,25.58
2023-05-09T04:54:47.748Z,25.65
2023-05-09T04:59:55.878Z,25.75
2023-05-09T05:05:17.913Z,25.82
2023-05-09T05:10:23.202Z,25.88
2023-05-09T05:15:34.758Z,25.93
2023-05-09T05:20:44.921Z,26.00
2023-05-09T05:25:50.429Z,26.03
2023-05-09T05:30:56.864Z,25.98
2023-05-09T05:36:02.012Z,26.03
2023-05-09T05:41:07.822Z,26.07
2023-05-09T05:46:13.406Z,26.18
2023-05-09T05:51:19.498Z,26.23
2023-05-09T05:56:25.193Z,26.21
2023-05-09T06:01:30.910Z,26.22
2023-05-09T06:06:36.801Z,26.25
2023-05-09T06:11:42.397Z,26.34
2023-05-09T06:16:47.784Z,26.36
2023-05-09T06:21:53.426Z,26.41
2023-05-09T06:26:59.017Z,26.44
2023-05-09T06:32:04.396Z,26.44
2023-05-09T06:37:09.766Z,26.53
2023-05-09T06:42:15.414Z,26.65
2023-05-09T06:47:22.023Z,26.76
2023-05-09T06:52:27.566Z,26.83
2023-05-09T06:57:33.559Z,26.91
2023-05-09T07:02:42.897Z,27.01
2023-05-09T07:07:48.498Z,27.06
2023-05-09T07:12:54.607Z,27.07
2023-05-09T07:18:00.161Z,27.02
2023-05-09T07:23:08.412Z,27.00
2023-05-09T07:28:14.068Z,26.99
2023-05-09T07:33:19.304Z,26.93
2023-05-09T07:38:24.789Z,26.91
2023-05-09T07:43:29.894Z,26.90
2023-05-09T07:48:34.392Z,26.91
2023-05-09T07:53:39.311Z,26.89
2023-05-09T07:58:44.450Z,26.91
2023-05-09T08:03:49.573Z,26.92
2023-05-09T08:08:55.067Z,26.97
2023-05-09T08:14:00.418Z,26.94
2023-05-09T08:19:05.564Z,26.89
2023-05-09T08:24:10.966Z,26.85
2023-05-09T08:29:16.524Z,26.80
2023-05-09T08:34:22.871Z,26.81
2023-05-09T08:39:28.070Z,26.79
2023-05-09T08:44:33.816Z,26.76
2023-05-09T08:49:39.170Z,26.70
2023-05-09T08:54:45.220Z,26.65
2023-05-09T08:59:53.859Z,26.59
2023-05-09T09:04:59.026Z,26.51
2023-05-09T09:10:06.365Z,26.41
2023-05-09T09:15:19.154Z,26.23
2023-05-09T09:20:28.171Z,26.07
2023-05-09T09:25:33.617Z,25.90
2023-05-09T09:30:55.663Z,25.87
2023-05-09T09:36:01.337Z,25.77
2023-05-09T09:41:07.251Z,25.56
2023-05-09T09:46:13.244Z,25.39
2023-05-09T09:51:19.985Z,25.25
2023-05-09T09:56:44.045Z,25.12
2023-05-09T10:02:07.519Z,25.03
2023-05-09T10:07:15.062Z,24.91
2023-05-09T10:12:22.193Z,24.82
2023-05-09T10:17:28.769Z,24.66
2023-05-09T10:22:37.710Z,24.53
2023-05-09T10:27:47.116Z,24.44
2023-05-09T10:32:56.786Z,24.37
2023-05-09T10:38:04.451Z,24.29
2023-05-09T10:43:09.790Z,24.15
2023-05-09T10:48:16.421Z,24.01
2023-05-09T10:53:25.592Z,23.92
2023-05-09T10:58:37.561Z,23.84
2023-05-09T11:04:01.237Z,23.71
2023-05-09T11:09:33.967Z,23.60
2023-05-09T11:14:51.124Z,23.58
2023-05-09T11:20:01.125Z,23.52
2023-05-09T11:25:17.905Z,23.48
2023-05-09T11:30:23.890Z,23.39
2023-05-09T11:35:29.819Z,23.30
2023-05-09T11:40:35.566Z,23.28
2023-05-09T11:45:43.990Z,23.24
2023-05-09T11:50:50.927Z,23.18
2023-05-09T11:55:56.547Z,23.12
2023-05-09T12:01:03.277Z,23.00
2023-05-09T12:06:08.862Z,22.93
2023-05-09T12:11:18.523Z,22.87
2023-05-09T12:16:24.405Z,22.79
2023-05-09T12:21:30.826Z,22.73
2023-05-09T12:26:36.392Z,22.66
2023-05-09T12:31:42.852Z,22.68
2023-05-09T12:36:54.795Z,22.63
2023-05-09T12:42:02.011Z,22.56
2023-05-09T12:47:07.929Z,22.50
2023-05-09T12:52:26.546Z,22.44
2023-05-09T12:57:33.812Z,22.36
2023-05-09T13:02:42.482Z,22.31
2023-05-09T13:07:48.212Z,22.25
2023-05-09T13:12:54.706Z,22.17
2023-05-09T13:17:59.543Z,22.10
2023-05-09T13:23:05.573Z,22.05
2023-05-09T13:28:10.948Z,21.94
2023-05-09T13:33:25.153Z,21.82
2023-05-09T13:38:33.826Z,21.75
2023-05-09T13:43:44.077Z,21.71
2023-05-09T13:48:49.910Z,21.64
2023-05-09T13:53:57.271Z,21.60
2023-05-09T13:59:04.014Z,21.54
2023-05-09T14:04:09.757Z,21.50
2023-05-09T14:09:17.337Z,21.46
2023-05-09T14:14:25.888Z,21.42
2023-05-09T14:19:34.541Z,21.35
2023-05-09T14:24:45.160Z,21.25
2023-05-09T14:29:51.550Z,21.21
2023-05-09T14:34:58.960Z,21.15
2023-05-09T14:40:11.064Z,21.22
2023-05-09T14:45:18.002Z,21.14
2023-05-09T14:50:23.735Z,21.04
2023-05-09T14:55:30.180Z,20.96
2023-05-09T15:00:36.384Z,20.89
2023-05-09T15:05:46.207Z,20.80
2023-05-09T15:10:55.725Z,20.74
2023-05-09T15:16:06.100Z,20.67
2023-05-09T15:21:18.560Z,20.61
2023-05-09T15:26:24.512Z,20.69
2023-05-09T15:31:34.533Z,20.64
2023-05-09T15:36:44.052Z,20.56
2023-05-09T15:41:52.654Z,20.49
2023-05-09T15:46:59.847Z,20.40
2023-05-09T15:52:15.521Z,20.34
2023-05-09T15:57:21.118Z,20.29
2023-05-09T16:02:27.786Z,20.23
2023-05-09T16:07:35.747Z,20.19
2023-05-09T16:12:41.675Z,20.15
2023-05-09T16:17:47.989Z,20.10
2023-05-09T16:22:52.832Z,20.07
2023-05-09T16:27:58.353Z,20.04
2023-05-09T16:33:06.836Z,19.99
2023-05-09T16:38:12.239Z,19.97
2023-05-09T16:43:17.905Z,19.94
2023-05-09T16:48:26.105Z,19.93
2023-05-09T16:53:32.439Z,19.90
2023-05-09T16:58:37.458Z,19.88
2023-05-09T17:03:43.806Z,19.85
2023-05-09T17:08:49.872Z,19.84
2023-05-09T17:13:54.868Z,19.83
2023-05-09T17:18:59.991Z,19.77
2023-05-09T17:24:04.743Z,19.77
2023-05-09T17:29:10.160Z,19.76
2023-05-09T17:34:15.544Z,19.74
2023-05-09T17:39:20.514Z,19.73
2023-05-09T17:44:25.618Z,19.69
2023-05-09T17:49:31.252Z,19.70
2023-05-09T17:54:35.647Z,19.64
2023-05-09T17:59:42.720Z,19.57
2023-05-09T18:04:47.849Z,19.55
2023-05-09T18:09:52.805Z,19.53
2023-05-09T18:14:57.831Z,19.48
2023-05-09T18:20:02.169Z,19.47
2023-05-09T18:25:07.460Z,19.39
2023-05-09T18:30:12.856Z,19.38
2023-05-09T18:35:17.860Z,19.32
2023-05-09T18:40:23.143Z,19.27
2023-05-09T18:45:28.386Z,19.24
2023-05-09T18:50:33.789Z,19.19
2023-05-09T18:55:38.781Z,19.13
2023-05-09T19:00:44.200Z,19.08
2023-05-09T19:05:49.282Z,19.08
2023-05-09T19:10:54.522Z,19.15
2023-05-09T19:15:59.755Z,19.08
2023-05-09T19:21:04.930Z,18.97
2023-05-09T19:26:11.355Z,18.90
2023-05-09T19:31:19.461Z,18.83
2023-05-09T19:36:24.650Z,18.78
2023-05-09T19:41:29.618Z,18.74
2023-05-09T19:46:34.937Z,18.77
2023-05-09T19:51:40.507Z,18.74
2023-05-09T19:56:44.785Z,18.72
2023-05-09T20:01:49.852Z,18.69
2023-05-09T20:06:55.423Z,18.66
2023-05-09T20:12:04.888Z,18.59
2023-05-09T20:17:09.880Z,18.60
2023-05-09T20:22:14.838Z,18.57
2023-05-09T20:27:19.760Z,18.40
2023-05-09T20:32:25.607Z,18.38
2023-05-09T20:37:30.646Z,18.32
2023-05-09T20:42:36.155Z,18.22
2023-05-09T20:47:41.179Z,18.14
2023-05-09T20:52:46.105Z,18.06
2023-05-09T20:57:51.099Z,18.04
2023-05-09T21:02:58.777Z,17.99
2023-05-09T21:08:03.787Z,17.98
2023-05-09T21:13:09.974Z,17.92
2023-05-09T21:18:14.891Z,17.97
2023-05-09T21:23:19.768Z,17.87
2023-05-09T21:28:24.909Z,17.80
2023-05-09T21:33:30.916Z,17.74
2023-05-09T21:38:36.081Z,17.70
2023-05-09T21:43:40.863Z,17.74
2023-05-09T21:48:45.951Z,17.68
2023-05-09T21:53:51.205Z,17.66
2023-05-09T21:58:56.172Z,17.64
2023-05-09T22:04:01.317Z,17.66
2023-05-09T22:09:07.737Z,17.67
2023-05-09T22:14:12.749Z,17.70
2023-05-09T22:19:18.702Z,17.75
2023-05-09T22:24:23.674Z,17.79
2023-05-09T22:29:29.129Z,17.81
2023-05-09T22:34:34.023Z,17.86
2023-05-09T22:39:39.157Z,17.96
2023-05-09T22:44:44.612Z,18.06
2023-05-09T22:49:50.925Z,18.22
2023-05-09T22:54:55.868Z,18.34
2023-05-09T23:00:01.001Z,18.42
2023-05-09T23:05:06.190Z,18.53
2023-05-09T23:10:11.226Z,18.66
2023-05-09T23:15:16.130Z,18.80
2023-05-09T23:20:21.043Z,18.90
2023-05-09T23:25:26.137Z,19.04
2023-05-09T23:30:31.160Z,19.20
2023-05-09T23:35:35.651Z,19.36
2023-05-09T23:40:41.105Z,19.48
2023-05-09T23:45:46.109Z,19.66
2023-05-09T23:50:54.971Z,19.83
2023-05-09T23:55:59.752Z,19.98
